sensor_id;sensor_type;location;lat;lon;timestamp;pressure;altitude;pressure_sealevel;temperature;humidity
69982;BME280;57319;56.274;43.980;2023-04-21T00:00:04;99717.53;;;8.18;42.51
69982;BME280;57319;56.274;43.980;2023-04-21T00:02:33;99709.84;;;8.17;42.71
69982;BME280;57319;56.274;43.980;2023-04-21T00:05:05;99715.84;;;8.14;43.26
69982;BME280;57319;56.274;43.980;2023-04-21T00:07:34;99709.00;;;8.11;42.76
69982;BME280;57319;56.274;43.980;2023-04-21T00:10:09;99713.28;;;8.06;42.88
69982;BME280;57319;56.274;43.980;2023-04-21T00:12:36;99716.72;;;8.08;43.50
69982;BME280;57319;56.274;43.980;2023-04-21T00:15:03;99709.03;;;8.04;43.32
69982;BME280;57319;56.274;43.980;2023-04-21T00:17:32;99714.16;;;8.02;43.32
69982;BME280;57319;56.274;43.980;2023-04-21T00:19:57;99713.31;;;8.00;43.39
69982;BME280;57319;56.274;43.980;2023-04-21T00:22:23;99715.88;;;8.00;43.13
69982;BME280;57319;56.274;43.980;2023-04-21T00:24:49;99710.72;;;8.05;42.83
69982;BME280;57319;56.274;43.980;2023-04-21T00:27:14;99702.19;;;8.07;42.59
69982;BME280;57319;56.274;43.980;2023-04-21T00:29:40;99702.16;;;8.09;42.65
69982;BME280;57319;56.274;43.980;2023-04-21T00:32:07;99700.50;;;8.08;42.84
69982;BME280;57319;56.274;43.980;2023-04-21T00:34:34;99697.91;;;8.03;42.57
69982;BME280;57319;56.274;43.980;2023-04-21T00:37:00;99688.53;;;7.99;42.62
69982;BME280;57319;56.274;43.980;2023-04-21T00:39:26;99697.97;;;7.97;42.52
69982;BME280;57319;56.274;43.980;2023-04-21T00:41:51;99694.53;;;7.96;42.37
69982;BME280;57319;56.274;43.980;2023-04-21T00:44:17;99689.41;;;7.93;42.31
69982;BME280;57319;56.274;43.980;2023-04-21T00:46:43;99686.88;;;7.89;42.92
69982;BME280;57319;56.274;43.980;2023-04-21T00:49:09;99684.31;;;7.81;42.87
69982;BME280;57319;56.274;43.980;2023-04-21T00:51:35;99681.78;;;7.72;43.09
69982;BME280;57319;56.274;43.980;2023-04-21T00:54:03;99679.22;;;7.61;43.15
69982;BME280;57319;56.274;43.980;2023-04-21T00:56:30;99669.00;;;7.48;43.00
69982;BME280;57319;56.274;43.980;2023-04-21T00:58:57;99671.59;;;7.41;43.40
69982;BME280;57319;56.274;43.980;2023-04-21T01:01:23;99665.63;;;7.36;43.60
69982;BME280;57319;56.274;43.980;2023-04-21T01:03:49;99674.16;;;7.30;43.80
69982;BME280;57319;56.274;43.980;2023-04-21T01:06:17;99674.16;;;7.24;44.19
69982;BME280;57319;56.274;43.980;2023-04-21T01:08:45;99673.31;;;7.19;44.00
69982;BME280;57319;56.274;43.980;2023-04-21T01:11:11;99673.31;;;7.17;43.90
69982;BME280;57319;56.274;43.980;2023-04-21T01:13:38;99667.31;;;7.17;43.81
69982;BME280;57319;56.274;43.980;2023-04-21T01:16:05;99673.31;;;7.20;43.61
69982;BME280;57319;56.274;43.980;2023-04-21T01:18:32;99675.03;;;7.23;44.17
69982;BME280;57319;56.274;43.980;2023-04-21T01:20:58;99675.88;;;7.23;44.12
69982;BME280;57319;56.274;43.980;2023-04-21T01:23:24;99669.88;;;7.20;43.73
69982;BME280;57319;56.274;43.980;2023-04-21T01:25:50;99669.88;;;7.17;43.74
69982;BME280;57319;56.274;43.980;2023-04-21T01:28:22;99673.28;;;7.14;43.05
69982;BME280;57319;56.274;43.980;2023-04-21T01:30:48;99669.91;;;7.13;42.87
69982;BME280;57319;56.274;43.980;2023-04-21T01:33:14;99669.03;;;7.10;42.95
69982;BME280;57319;56.274;43.980;2023-04-21T01:35:40;99663.91;;;7.10;43.53
69982;BME280;57319;56.274;43.980;2023-04-21T01:38:06;99667.34;;;7.12;44.41
69982;BME280;57319;56.274;43.980;2023-04-21T01:40:31;99668.19;;;7.19;45.51
69982;BME280;57319;56.274;43.980;2023-04-21T01:42:57;99663.91;;;7.19;46.19
69982;BME280;57319;56.274;43.980;2023-04-21T01:45:23;99672.44;;;7.18;46.42
69982;BME280;57319;56.274;43.980;2023-04-21T01:47:49;99664.78;;;7.15;46.96
69982;BME280;57319;56.274;43.980;2023-04-21T01:50:15;99666.47;;;7.11;47.36
69982;BME280;57319;56.274;43.980;2023-04-21T01:52:41;99665.63;;;7.09;47.98
69982;BME280;57319;56.274;43.980;2023-04-21T01:55:07;99669.03;;;7.07;48.24
69982;BME280;57319;56.274;43.980;2023-04-21T01:57:33;99658.81;;;7.02;48.09
69982;BME280;57319;56.274;43.980;2023-04-21T01:59:58;99656.25;;;7.01;48.14
69982;BME280;57319;56.274;43.980;2023-04-21T02:02:24;99651.09;;;6.99;48.09
69982;BME280;57319;56.274;43.980;2023-04-21T02:04:50;99654.53;;;7.01;48.72
69982;BME280;57319;56.274;43.980;2023-04-21T02:07:16;99657.94;;;6.97;49.25
69982;BME280;57319;56.274;43.980;2023-04-21T02:09:41;99657.09;;;6.93;48.91
69982;BME280;57319;56.274;43.980;2023-04-21T02:12:07;99651.09;;;6.85;49.90
69982;BME280;57319;56.274;43.980;2023-04-21T02:14:33;99656.22;;;6.79;51.10
69982;BME280;57319;56.274;43.980;2023-04-21T02:16:58;99653.66;;;6.73;55.24
69982;BME280;57319;56.274;43.980;2023-04-21T02:19:24;99648.53;;;6.67;55.79
69982;BME280;57319;56.274;43.980;2023-04-21T02:21:50;99651.94;;;6.64;56.22
69982;BME280;57319;56.274;43.980;2023-04-21T02:24:16;99652.78;;;6.60;56.80
69982;BME280;57319;56.274;43.980;2023-04-21T02:26:42;99654.47;;;6.58;56.51
69982;BME280;57319;56.274;43.980;2023-04-21T02:29:07;99660.47;;;6.55;55.88
69982;BME280;57319;56.274;43.980;2023-04-21T02:31:33;99652.75;;;6.52;56.43
69982;BME280;57319;56.274;43.980;2023-04-21T02:33:58;99657.03;;;6.50;55.66
69982;BME280;57319;56.274;43.980;2023-04-21T02:36:24;99656.19;;;6.51;55.60
69982;BME280;57319;56.274;43.980;2023-04-21T02:38:50;99657.88;;;6.52;55.28
69982;BME280;57319;56.274;43.980;2023-04-21T02:41:16;99653.63;;;6.57;56.16
69982;BME280;57319;56.274;43.980;2023-04-21T02:43:41;99664.69;;;6.56;55.70
69982;BME280;57319;56.274;43.980;2023-04-21T02:46:07;99663.00;;;6.52;56.41
69982;BME280;57319;56.274;43.980;2023-04-21T02:48:36;99661.31;;;6.53;56.96
69982;BME280;57319;56.274;43.980;2023-04-21T02:51:02;99657.88;;;6.51;57.29
69982;BME280;57319;56.274;43.980;2023-04-21T02:53:28;99659.59;;;6.53;57.33
69982;BME280;57319;56.274;43.980;2023-04-21T02:55:54;99664.72;;;6.55;57.21
69982;BME280;57319;56.274;43.980;2023-04-21T02:58:21;99656.19;;;6.57;56.90
69982;BME280;57319;56.274;43.980;2023-04-21T03:00:46;99662.19;;;6.66;57.42
69982;BME280;57319;56.274;43.980;2023-04-21T03:03:14;99660.47;;;6.71;57.47
69982;BME280;57319;56.274;43.980;2023-04-21T03:05:40;99661.34;;;6.76;57.56
69982;BME280;57319;56.274;43.980;2023-04-21T03:08:06;99657.06;;;6.81;57.70
69982;BME280;57319;56.274;43.980;2023-04-21T03:10:31;99653.66;;;6.87;57.67
69982;BME280;57319;56.274;43.980;2023-04-21T03:12:57;99656.25;;;6.94;58.02
69982;BME280;57319;56.274;43.980;2023-04-21T03:15:23;99649.41;;;7.03;58.11
69982;BME280;57319;56.274;43.980;2023-04-21T03:17:48;99650.28;;;7.11;57.55
69982;BME280;57319;56.274;43.980;2023-04-21T03:20:14;99654.53;;;7.23;57.07
69982;BME280;57319;56.274;43.980;2023-04-21T03:22:40;99645.13;;;7.34;56.61
69982;BME280;57319;56.274;43.980;2023-04-21T03:25:06;99646.81;;;7.43;56.31
69982;BME280;57319;56.274;43.980;2023-04-21T03:27:33;99639.97;;;7.56;56.27
69982;BME280;57319;56.274;43.980;2023-04-21T03:29:59;99648.50;;;7.66;55.70
69982;BME280;57319;56.274;43.980;2023-04-21T03:32:25;99654.44;;;7.75;54.69
69982;BME280;57319;56.274;43.980;2023-04-21T03:34:50;99655.28;;;7.82;54.40
69982;BME280;57319;56.274;43.980;2023-04-21T03:37:16;99649.28;;;7.89;54.15
69982;BME280;57319;56.274;43.980;2023-04-21T03:39:42;99651.81;;;7.97;54.31
69982;BME280;57319;56.274;43.980;2023-04-21T03:42:07;99656.91;;;8.05;54.04
69982;BME280;57319;56.274;43.980;2023-04-21T03:44:33;99659.44;;;8.12;53.75
69982;BME280;57319;56.274;43.980;2023-04-21T03:46:59;99654.28;;;8.20;53.36
69982;BME280;57319;56.274;43.980;2023-04-21T03:49:24;99661.94;;;8.32;53.03
69982;BME280;57319;56.274;43.980;2023-04-21T03:51:50;99658.44;;;8.44;52.68
69982;BME280;57319;56.274;43.980;2023-04-21T03:54:16;99650.72;;;8.54;52.21
69982;BME280;57319;56.274;43.980;2023-04-21T03:56:41;99653.22;;;8.63;51.93
69982;BME280;57319;56.274;43.980;2023-04-21T03:59:07;99648.88;;;8.74;51.54
69982;BME280;57319;56.274;43.980;2023-04-21T04:01:33;99641.94;;;8.87;46.66
69982;BME280;57319;56.274;43.980;2023-04-21T04:03:59;99634.03;;;9.12;43.49
69982;BME280;57319;56.274;43.980;2023-04-21T04:06:24;99633.00;;;9.33;43.42
69982;BME280;57319;56.274;43.980;2023-04-21T04:08:50;99633.66;;;9.50;42.75
69982;BME280;57319;56.274;43.980;2023-04-21T04:11:16;99632.63;;;9.67;42.10
69982;BME280;57319;56.274;43.980;2023-04-21T04:13:42;99631.59;;;9.85;40.40
69982;BME280;57319;56.274;43.980;2023-04-21T04:16:07;99626.25;;;10.02;39.16
69982;BME280;57319;56.274;43.980;2023-04-21T04:18:33;99628.63;;;10.17;38.64
69982;BME280;57319;56.274;43.980;2023-04-21T04:21:04;99630.13;;;10.32;40.19
69982;BME280;57319;56.274;43.980;2023-04-21T04:23:30;99629.34;;;10.27;41.80
69982;BME280;57319;56.274;43.980;2023-04-21T04:25:56;99626.94;;;10.15;42.52
69982;BME280;57319;56.274;43.980;2023-04-21T04:28:22;99628.69;;;10.11;43.43
69982;BME280;57319;56.274;43.980;2023-04-21T04:30:47;99622.66;;;10.12;43.00
69982;BME280;57319;56.274;43.980;2023-04-21T04:33:13;99629.47;;;10.18;42.58
69982;BME280;57319;56.274;43.980;2023-04-21T04:35:38;99626.81;;;10.24;42.70
69982;BME280;57319;56.274;43.980;2023-04-21T04:38:04;99630.16;;;10.31;42.94
69982;BME280;57319;56.274;43.980;2023-04-21T04:40:32;99630.09;;;10.39;42.91
69982;BME280;57319;56.274;43.980;2023-04-21T04:42:58;99624.00;;;10.44;42.26
69982;BME280;57319;56.274;43.980;2023-04-21T04:45:26;99618.84;;;10.46;41.47
69982;BME280;57319;56.274;43.980;2023-04-21T04:47:54;99622.19;;;10.49;41.14
69982;BME280;57319;56.274;43.980;2023-04-21T04:50:19;99619.56;;;10.54;41.49
69982;BME280;57319;56.274;43.980;2023-04-21T04:52:45;99621.19;;;10.61;40.85
69982;BME280;57319;56.274;43.980;2023-04-21T04:55:12;99615.09;;;10.67;40.51
69982;BME280;57319;56.274;43.980;2023-04-21T04:57:38;99616.69;;;10.76;40.80
69982;BME280;57319;56.274;43.980;2023-04-21T05:00:06;99613.06;;;10.86;41.74
69982;BME280;57319;56.274;43.980;2023-04-21T05:02:38;99610.34;;;10.95;41.64
69982;BME280;57319;56.274;43.980;2023-04-21T05:05:05;99614.50;;;11.04;41.80
69982;BME280;57319;56.274;43.980;2023-04-21T05:07:32;99610.25;;;11.01;41.00
69982;BME280;57319;56.274;43.980;2023-04-21T05:09:58;99608.53;;;11.02;40.48
69982;BME280;57319;56.274;43.980;2023-04-21T05:12:23;99608.47;;;11.05;40.59
69982;BME280;57319;56.274;43.980;2023-04-21T05:14:49;99605.78;;;11.13;40.64
69982;BME280;57319;56.274;43.980;2023-04-21T05:17:15;99602.25;;;11.18;39.96
69982;BME280;57319;56.274;43.980;2023-04-21T05:19:40;99600.38;;;11.27;39.18
69982;BME280;57319;56.274;43.980;2023-04-21T05:22:06;99589.91;;;11.34;38.26
69982;BME280;57319;56.274;43.980;2023-04-21T05:24:32;99591.50;;;11.43;37.61
69982;BME280;57319;56.274;43.980;2023-04-21T05:26:58;99594.66;;;11.56;36.89
69982;BME280;57319;56.274;43.980;2023-04-21T05:29:25;99590.97;;;11.69;35.83
69982;BME280;57319;56.274;43.980;2023-04-21T05:31:51;99595.97;;;11.79;35.39
69982;BME280;57319;56.274;43.980;2023-04-21T05:34:16;99594.91;;;11.87;35.46
69982;BME280;57319;56.274;43.980;2023-04-21T05:36:42;99590.41;;;11.99;35.08
69982;BME280;57319;56.274;43.980;2023-04-21T05:39:08;99594.47;;;12.11;33.69
69982;BME280;57319;56.274;43.980;2023-04-21T05:41:34;99590.91;;;12.16;34.87
69982;BME280;57319;56.274;43.980;2023-04-21T05:44:00;99586.47;;;12.23;34.95
69982;BME280;57319;56.274;43.980;2023-04-21T05:46:25;99588.09;;;12.27;34.45
69982;BME280;57319;56.274;43.980;2023-04-21T05:48:51;99587.97;;;12.32;34.44
69982;BME280;57319;56.274;43.980;2023-04-21T05:51:17;99590.44;;;12.38;33.30
69982;BME280;57319;56.274;43.980;2023-04-21T05:53:45;99589.34;;;12.47;32.44
69982;BME280;57319;56.274;43.980;2023-04-21T05:56:11;99580.31;;;12.65;32.14
69982;BME280;57319;56.274;43.980;2023-04-21T05:58:38;99584.31;;;12.78;31.83
69982;BME280;57319;56.274;43.980;2023-04-21T06:01:04;99580.66;;;12.87;31.49
69982;BME280;57319;56.274;43.980;2023-04-21T06:03:31;99584.72;;;12.97;31.87
69982;BME280;57319;56.274;43.980;2023-04-21T06:06:03;99581.09;;;13.04;31.09
69982;BME280;57319;56.274;43.980;2023-04-21T06:08:29;99588.66;;;13.12;31.07
69982;BME280;57319;56.274;43.980;2023-04-21T06:10:54;99577.41;;;13.13;30.95
69982;BME280;57319;56.274;43.980;2023-04-21T06:13:20;99578.44;;;13.06;31.27
69982;BME280;57319;56.274;43.980;2023-04-21T06:15:46;99584.50;;;13.06;32.28
69982;BME280;57319;56.274;43.980;2023-04-21T06:18:11;99578.03;;;13.21;31.96
69982;BME280;57319;56.274;43.980;2023-04-21T06:20:37;99573.53;;;13.30;31.55
69982;BME280;57319;56.274;43.980;2023-04-21T06:23:05;99582.13;;;13.30;31.16
69982;BME280;57319;56.274;43.980;2023-04-21T06:25:31;99579.47;;;13.33;31.42
69982;BME280;57319;56.274;43.980;2023-04-21T06:27:57;99572.56;;;13.34;31.25
69982;BME280;57319;56.274;43.980;2023-04-21T06:30:22;99569.06;;;13.36;31.15
69982;BME280;57319;56.274;43.980;2023-04-21T06:32:48;99571.47;;;13.44;30.87
69982;BME280;57319;56.274;43.980;2023-04-21T06:35:14;99570.56;;;13.45;30.85
69982;BME280;57319;56.274;43.980;2023-04-21T06:37:40;99575.47;;;13.54;30.59
69982;BME280;57319;56.274;43.980;2023-04-21T06:40:07;99572.88;;;13.54;30.28
69982;BME280;57319;56.274;43.980;2023-04-21T06:42:33;99560.69;;;13.60;30.33
69982;BME280;57319;56.274;43.980;2023-04-21T06:44:58;99566.53;;;13.66;29.80
69982;BME280;57319;56.274;43.980;2023-04-21T06:47:24;99562.09;;;13.71;29.90
69982;BME280;57319;56.274;43.980;2023-04-21T06:49:50;99565.25;;;13.81;29.39
69982;BME280;57319;56.274;43.980;2023-04-21T06:52:16;99562.47;;;13.87;29.30
69982;BME280;57319;56.274;43.980;2023-04-21T06:54:42;99558.06;;;13.91;29.19
69982;BME280;57319;56.274;43.980;2023-04-21T06:57:07;99557.13;;;13.94;28.98
69982;BME280;57319;56.274;43.980;2023-04-21T06:59:33;99558.81;;;13.95;28.71
69982;BME280;57319;56.274;43.980;2023-04-21T07:01:59;99554.34;;;14.00;28.55
69982;BME280;57319;56.274;43.980;2023-04-21T07:04:24;99548.22;;;14.02;28.62
69982;BME280;57319;56.274;43.980;2023-04-21T07:06:54;99551.91;;;13.95;27.92
69982;BME280;57319;56.274;43.980;2023-04-21T07:09:20;99548.47;;;13.95;27.87
69982;BME280;57319;56.274;43.980;2023-04-21T07:11:46;99542.38;;;13.96;28.07
69982;BME280;57319;56.274;43.980;2023-04-21T07:14:12;99553.59;;;13.96;28.08
69982;BME280;57319;56.274;43.980;2023-04-21T07:16:37;99550.19;;;13.94;27.81
69982;BME280;57319;56.274;43.980;2023-04-21T07:19:03;99544.09;;;13.97;27.95
69982;BME280;57319;56.274;43.980;2023-04-21T07:21:29;99545.75;;;13.99;27.95
69982;BME280;57319;56.274;43.980;2023-04-21T07:23:57;99544.97;;;13.97;27.24
69982;BME280;57319;56.274;43.980;2023-04-21T07:26:25;99543.09;;;14.01;27.53
69982;BME280;57319;56.274;43.980;2023-04-21T07:28:51;99544.75;;;14.03;26.87
69982;BME280;57319;56.274;43.980;2023-04-21T07:31:17;99543.66;;;14.11;26.66
69982;BME280;57319;56.274;43.980;2023-04-21T07:33:43;99548.69;;;14.17;27.33
69982;BME280;57319;56.274;43.980;2023-04-21T07:36:09;99545.81;;;14.24;27.57
69982;BME280;57319;56.274;43.980;2023-04-21T07:38:34;99551.78;;;14.28;27.19
69982;BME280;57319;56.274;43.980;2023-04-21T07:41:03;99544.88;;;14.27;26.98
69982;BME280;57319;56.274;43.980;2023-04-21T07:43:28;99544.00;;;14.28;27.29
69982;BME280;57319;56.274;43.980;2023-04-21T07:45:56;99543.84;;;14.33;27.25
69982;BME280;57319;56.274;43.980;2023-04-21T07:48:22;99546.69;;;14.25;27.60
69982;BME280;57319;56.274;43.980;2023-04-21T07:50:47;99537.59;;;14.40;27.15
69982;BME280;57319;56.274;43.980;2023-04-21T07:53:14;99538.16;;;14.50;25.98
69982;BME280;57319;56.274;43.980;2023-04-21T07:55:40;99535.75;;;14.43;25.82
69982;BME280;57319;56.274;43.980;2023-04-21T07:58:06;99536.25;;;14.28;25.49
69982;BME280;57319;56.274;43.980;2023-04-21T08:00:31;99534.03;;;14.16;25.88
69982;BME280;57319;56.274;43.980;2023-04-21T08:02:57;99530.84;;;14.07;25.83
69982;BME280;57319;56.274;43.980;2023-04-21T08:05:23;99538.91;;;13.97;24.96
69982;BME280;57319;56.274;43.980;2023-04-21T08:07:49;99533.03;;;13.91;24.90
69982;BME280;57319;56.274;43.980;2023-04-21T08:10:15;99532.25;;;13.89;25.33
69982;BME280;57319;56.274;43.980;2023-04-21T08:12:41;99528.84;;;13.87;25.39
69982;BME280;57319;56.274;43.980;2023-04-21T08:15:07;99528.94;;;13.84;25.30
69982;BME280;57319;56.274;43.980;2023-04-21T08:17:33;99521.94;;;13.88;25.38
69982;BME280;57319;56.274;43.980;2023-04-21T08:20:00;99524.63;;;14.13;25.48
69982;BME280;57319;56.274;43.980;2023-04-21T08:22:26;99519.38;;;14.15;25.20
69982;BME280;57319;56.274;43.980;2023-04-21T08:24:51;99523.72;;;14.14;24.59
69982;BME280;57319;56.274;43.980;2023-04-21T08:27:17;99511.78;;;14.10;23.77
69982;BME280;57319;56.274;43.980;2023-04-21T08:29:43;99510.25;;;14.31;23.19
69982;BME280;57319;56.274;43.980;2023-04-21T08:32:08;99500.03;;;14.53;22.01
69982;BME280;57319;56.274;43.980;2023-04-21T08:34:34;99506.94;;;14.81;21.71
69982;BME280;57319;56.274;43.980;2023-04-21T08:37:00;99502.09;;;14.96;21.47
69982;BME280;57319;56.274;43.980;2023-04-21T08:39:26;99499.94;;;15.08;21.68
69982;BME280;57319;56.274;43.980;2023-04-21T08:41:51;99496.38;;;15.11;21.12
69982;BME280;57319;56.274;43.980;2023-04-21T08:44:19;99495.34;;;15.17;21.24
69982;BME280;57319;56.274;43.980;2023-04-21T08:46:47;99487.13;;;15.29;20.64
69982;BME280;57319;56.274;43.980;2023-04-21T08:49:18;99491.44;;;15.29;21.51
69982;BME280;57319;56.274;43.980;2023-04-21T08:51:45;99487.84;;;15.33;21.08
69982;BME280;57319;56.274;43.980;2023-04-21T08:54:11;99484.72;;;15.47;21.13
69982;BME280;57319;56.274;43.980;2023-04-21T08:56:38;99489.03;;;15.48;20.42
69982;BME280;57319;56.274;43.980;2023-04-21T08:59:05;99486.25;;;15.52;21.23
69982;BME280;57319;56.274;43.980;2023-04-21T09:01:30;99482.69;;;15.55;20.84
69982;BME280;57319;56.274;43.980;2023-04-21T09:04:26;99471.41;;;15.56;20.14
69982;BME280;57319;56.274;43.980;2023-04-21T09:06:54;99469.38;;;15.64;20.79
69982;BME280;57319;56.274;43.980;2023-04-21T09:09:19;99471.69;;;15.72;20.45
69982;BME280;57319;56.274;43.980;2023-04-21T09:11:53;99471.78;;;15.69;20.19
69982;BME280;57319;56.274;43.980;2023-04-21T09:14:21;99464.84;;;15.47;20.42
69982;BME280;57319;56.274;43.980;2023-04-21T09:16:58;99473.06;;;15.58;20.97
69982;BME280;57319;56.274;43.980;2023-04-21T09:19:33;99464.81;;;15.71;21.69
69982;BME280;57319;56.274;43.980;2023-04-21T09:21:59;99472.31;;;15.78;21.57
69982;BME280;57319;56.274;43.980;2023-04-21T09:24:25;99468.41;;;15.90;22.06
69982;BME280;57319;56.274;43.980;2023-04-21T09:26:51;99462.66;;;16.04;21.88
69982;BME280;57319;56.274;43.980;2023-04-21T09:29:21;99450.94;;;16.16;21.65
69982;BME280;57319;56.274;43.980;2023-04-21T09:31:47;99450.00;;;16.39;21.71
69982;BME280;57319;56.274;43.980;2023-04-21T09:34:23;99448.63;;;16.51;21.20
69982;BME280;57319;56.274;43.980;2023-04-21T09:37:00;99450.25;;;16.54;21.53
69982;BME280;57319;56.274;43.980;2023-04-21T09:39:32;99458.47;;;16.65;21.51
69982;BME280;57319;56.274;43.980;2023-04-21T09:41:58;99453.13;;;16.68;21.59
69982;BME280;57319;56.274;43.980;2023-04-21T09:44:24;99443.84;;;16.62;21.63
69982;BME280;57319;56.274;43.980;2023-04-21T09:46:53;99446.84;;;16.53;21.77
69982;BME280;57319;56.274;43.980;2023-04-21T09:49:23;99452.47;;;16.63;21.75
69982;BME280;57319;56.274;43.980;2023-04-21T09:51:50;99452.41;;;16.65;21.70
69982;BME280;57319;56.274;43.980;2023-04-21T09:54:18;99456.13;;;16.59;22.08
69982;BME280;57319;56.274;43.980;2023-04-21T09:56:48;99450.25;;;16.54;21.80
69982;BME280;57319;56.274;43.980;2023-04-21T09:59:18;99452.09;;;16.52;22.10
69982;BME280;57319;56.274;43.980;2023-04-21T10:01:47;99438.97;;;16.55;21.83
69982;BME280;57319;56.274;43.980;2023-04-21T10:04:14;99439.50;;;16.63;21.85
69982;BME280;57319;56.274;43.980;2023-04-21T10:06:41;99433.97;;;16.71;21.56
69982;BME280;57319;56.274;43.980;2023-04-21T10:09:08;99431.03;;;16.78;21.76
69982;BME280;57319;56.274;43.980;2023-04-21T10:11:34;99424.94;;;16.79;21.48
69982;BME280;57319;56.274;43.980;2023-04-21T10:14:02;99431.22;;;16.74;21.10
69982;BME280;57319;56.274;43.980;2023-04-21T10:16:27;99421.34;;;16.82;21.30
69982;BME280;57319;56.274;43.980;2023-04-21T10:18:53;99424.72;;;16.84;21.44
69982;BME280;57319;56.274;43.980;2023-04-21T10:21:20;99411.16;;;16.98;20.99
69982;BME280;57319;56.274;43.980;2023-04-21T10:23:47;99416.06;;;17.04;20.88
69982;BME280;57319;56.274;43.980;2023-04-21T10:26:33;99419.88;;;16.97;20.95
69982;BME280;57319;56.274;43.980;2023-04-21T10:29:03;99406.88;;;16.76;21.55
69982;BME280;57319;56.274;43.980;2023-04-21T10:31:34;99405.31;;;16.93;21.30
69982;BME280;57319;56.274;43.980;2023-04-21T10:39:33;99401.69;;;17.35;19.82
69982;BME280;57319;56.274;43.980;2023-04-21T10:47:25;99393.28;;;18.03;19.55
69982;BME280;57319;56.274;43.980;2023-04-21T10:49:58;99387.75;;;17.92;19.56
69982;BME280;57319;56.274;43.980;2023-04-21T10:52:31;99386.75;;;18.12;19.56
69982;BME280;57319;56.274;43.980;2023-04-21T10:57:31;99380.19;;;19.07;18.76
69982;BME280;57319;56.274;43.980;2023-04-21T10:59:57;99377.69;;;19.21;18.10
69982;BME280;57319;56.274;43.980;2023-04-21T11:02:26;99379.34;;;19.38;18.18
69982;BME280;57319;56.274;43.980;2023-04-21T11:04:52;99382.00;;;20.00;18.68
69982;BME280;57319;56.274;43.980;2023-04-21T11:07:22;99377.06;;;19.64;18.46
69982;BME280;57319;56.274;43.980;2023-04-21T11:09:59;99379.63;;;19.49;18.69
69982;BME280;57319;56.274;43.980;2023-04-21T11:12:27;99374.31;;;19.19;18.53
69982;BME280;57319;56.274;43.980;2023-04-21T11:14:57;99364.97;;;19.31;18.51
69982;BME280;57319;56.274;43.980;2023-04-21T11:17:23;99359.06;;;19.43;18.17
69982;BME280;57319;56.274;43.980;2023-04-21T11:19:50;99358.59;;;19.21;18.24
69982;BME280;57319;56.274;43.980;2023-04-21T11:22:16;99358.56;;;20.44;17.06
69982;BME280;57319;56.274;43.980;2023-04-21T11:24:47;99351.34;;;21.89;16.35
69982;BME280;57319;56.274;43.980;2023-04-21T11:27:13;99355.84;;;23.02;15.50
69982;BME280;57319;56.274;43.980;2023-04-21T11:29:40;99342.38;;;23.68;14.74
69982;BME280;57319;56.274;43.980;2023-04-21T11:32:07;99349.84;;;23.26;15.04
69982;BME280;57319;56.274;43.980;2023-04-21T11:34:41;99352.97;;;24.15;14.40
69982;BME280;57319;56.274;43.980;2023-04-21T11:37:14;99354.97;;;24.00;14.36
69982;BME280;57319;56.274;43.980;2023-04-21T11:39:42;99353.22;;;23.02;15.48
69982;BME280;57319;56.274;43.980;2023-04-21T11:42:09;99345.03;;;23.44;14.73
69982;BME280;57319;56.274;43.980;2023-04-21T11:44:41;99331.94;;;23.55;14.42
69982;BME280;57319;56.274;43.980;2023-04-21T11:47:12;99330.31;;;23.66;14.09
69982;BME280;57319;56.274;43.980;2023-04-21T11:49:57;99334.47;;;23.33;14.15
69982;BME280;57319;56.274;43.980;2023-04-21T11:52:31;99325.44;;;23.72;14.21
69982;BME280;57319;56.274;43.980;2023-04-21T11:55:00;99323.78;;;23.47;14.00
69982;BME280;57319;56.274;43.980;2023-04-21T11:57:27;99325.81;;;23.79;14.10
69982;BME280;57319;56.274;43.980;2023-04-21T11:59:53;99331.31;;;24.12;13.72
69982;BME280;57319;56.274;43.980;2023-04-21T12:02:31;99314.38;;;24.38;13.33
69982;BME280;57319;56.274;43.980;2023-04-21T12:05:08;99323.41;;;24.00;13.64
69982;BME280;57319;56.274;43.980;2023-04-21T12:07:44;99321.50;;;24.14;13.84
69982;BME280;57319;56.274;43.980;2023-04-21T12:10:16;99316.16;;;24.95;13.33
69982;BME280;57319;56.274;43.980;2023-04-21T12:12:43;99322.47;;;25.15;13.46
69982;BME280;57319;56.274;43.980;2023-04-21T12:15:10;99316.34;;;25.58;13.06
69982;BME280;57319;56.274;43.980;2023-04-21T12:17:43;99312.75;;;25.91;12.83
69982;BME280;57319;56.274;43.980;2023-04-21T12:20:11;99303.66;;;25.31;13.31
69982;BME280;57319;56.274;43.980;2023-04-21T12:22:37;99310.13;;;23.91;14.30
69982;BME280;57319;56.274;43.980;2023-04-21T12:25:04;99307.44;;;23.19;14.79
69982;BME280;57319;56.274;43.980;2023-04-21T12:27:33;99299.50;;;23.68;14.70
69982;BME280;57319;56.274;43.980;2023-04-21T12:29:59;99295.63;;;24.88;13.84
69982;BME280;57319;56.274;43.980;2023-04-21T12:32:25;99296.38;;;25.98;13.21
69982;BME280;57319;56.274;43.980;2023-04-21T12:34:51;99284.97;;;26.08;13.03
69982;BME280;57319;56.274;43.980;2023-04-21T12:37:17;99292.47;;;25.71;12.98
69982;BME280;57319;56.274;43.980;2023-04-21T12:39:43;99280.25;;;25.70;13.11
69982;BME280;57319;56.274;43.980;2023-04-21T12:42:09;99287.34;;;26.12;12.81
69982;BME280;57319;56.274;43.980;2023-04-21T12:44:34;99280.09;;;26.35;12.87
69982;BME280;57319;56.274;43.980;2023-04-21T12:47:03;99286.28;;;26.55;12.11
69982;BME280;57319;56.274;43.980;2023-04-21T12:49:29;99282.63;;;26.77;11.95
69982;BME280;57319;56.274;43.980;2023-04-21T12:51:55;99282.56;;;26.27;12.38
69982;BME280;57319;56.274;43.980;2023-04-21T12:54:21;99280.63;;;26.29;12.24
69982;BME280;57319;56.274;43.980;2023-04-21T12:56:46;99273.00;;;26.04;12.37
69982;BME280;57319;56.274;43.980;2023-04-21T12:59:12;99274.22;;;25.79;12.50
69982;BME280;57319;56.274;43.980;2023-04-21T13:01:39;99270.47;;;25.61;12.70
69982;BME280;57319;56.274;43.980;2023-04-21T13:04:06;99269.00;;;25.47;12.92